createdAt,value
2019-02-24T00:00:28.809Z,6.73
2019-02-24T00:02:57.678Z,6.50
2019-02-24T00:05:26.263Z,4.30
2019-02-24T00:07:54.629Z,6.33
2019-02-24T00:10:23.012Z,5.43
2019-02-24T00:12:51.387Z,4.70
2019-02-24T00:15:19.712Z,5.10
2019-02-24T00:17:48.029Z,4.47
2019-02-24T00:20:16.322Z,6.67
2019-02-24T00:22:44.653Z,4.87
2019-02-24T00:25:12.961Z,5.67
2019-02-24T00:27:41.424Z,4.80
2019-02-24T00:30:12.476Z,5.50
2019-02-24T00:32:40.946Z,7.20
2019-02-24T00:35:09.298Z,8.60
2019-02-24T00:37:37.626Z,6.37
2019-02-24T00:40:07.608Z,7.50
2019-02-24T00:42:36.020Z,5.53
2019-02-24T00:45:05.447Z,4.77
2019-02-24T00:47:33.792Z,6.80
2019-02-24T00:50:02.146Z,5.20
2019-02-24T00:52:30.450Z,4.30
2019-02-24T00:54:58.721Z,4.37
2019-02-24T00:57:27.048Z,3.43
2019-02-24T00:59:55.423Z,4.40
2019-02-24T01:02:23.745Z,6.63
2019-02-24T01:04:52.043Z,4.70
2019-02-24T01:07:20.374Z,5.40
2019-02-24T01:09:48.659Z,5.03
2019-02-24T01:12:17.545Z,6.10
2019-02-24T01:14:45.917Z,6.20
2019-02-24T01:17:14.202Z,4.27
2019-02-24T01:19:42.538Z,4.67
2019-02-24T01:22:10.831Z,5.17
2019-02-24T01:24:39.135Z,5.47
2019-02-24T01:27:07.630Z,6.77
2019-02-24T01:29:35.952Z,4.90
2019-02-24T01:32:04.242Z,7.80
2019-02-24T01:34:32.563Z,6.17
2019-02-24T01:37:00.902Z,7.80
2019-02-24T01:39:29.302Z,12.50
2019-02-24T01:41:57.624Z,15.40
2019-02-24T01:44:25.906Z,11.47
2019-02-24T01:46:54.347Z,18.03
2019-02-24T01:49:22.669Z,20.23
2019-02-24T01:51:50.974Z,27.60
2019-02-24T01:54:19.322Z,16.47
2019-02-24T01:56:47.691Z,19.67
2019-02-24T01:59:16.195Z,23.53
2019-02-24T02:01:44.518Z,27.53
2019-02-24T02:04:12.827Z,13.57
2019-02-24T02:06:41.125Z,11.37
2019-02-24T02:09:09.514Z,11.47
2019-02-24T02:11:37.966Z,12.90
2019-02-24T02:14:06.266Z,12.27
2019-02-24T02:16:35.182Z,18.23
2019-02-24T02:19:03.559Z,10.30
2019-02-24T02:21:32.009Z,11.70
2019-02-24T02:24:00.321Z,13.90
2019-02-24T02:26:28.723Z,9.23
2019-02-24T02:28:57.007Z,8.20
2019-02-24T02:31:25.320Z,7.90
2019-02-24T02:33:53.944Z,11.37
2019-02-24T02:36:22.439Z,7.20
2019-02-24T02:38:50.890Z,11.67
2019-02-24T02:41:19.887Z,10.50
2019-02-24T02:43:48.187Z,6.00
2019-02-24T02:46:16.742Z,5.97
2019-02-24T02:48:45.045Z,9.90
2019-02-24T02:51:13.353Z,7.60
2019-02-24T02:53:41.913Z,6.03
2019-02-24T02:56:10.305Z,9.63
2019-02-24T02:58:38.590Z,5.90
2019-02-24T03:01:07.099Z,5.63
2019-02-24T03:03:35.424Z,4.33
2019-02-24T03:06:08.226Z,4.90
2019-02-24T03:08:47.073Z,4.63
2019-02-24T03:11:16.425Z,5.70
2019-02-24T03:13:44.993Z,5.43
2019-02-24T03:16:13.413Z,4.67
2019-02-24T03:18:41.934Z,4.42
2019-02-24T03:21:10.232Z,5.60
2019-02-24T03:23:38.804Z,5.08
2019-02-24T03:26:07.115Z,5.12
2019-02-24T03:28:35.431Z,4.83
2019-02-24T03:31:03.791Z,4.70
2019-02-24T03:33:32.104Z,5.77
2019-02-24T03:36:00.388Z,2.70
2019-02-24T03:38:28.799Z,4.55
2019-02-24T03:40:57.162Z,4.20
2019-02-24T03:43:25.604Z,3.20
2019-02-24T03:45:55.114Z,3.23
2019-02-24T03:48:23.491Z,4.20
2019-02-24T03:50:51.795Z,4.72
2019-02-24T03:53:20.152Z,5.50
2019-02-24T03:55:48.578Z,4.12
2019-02-24T03:58:17.040Z,4.23
2019-02-24T04:00:45.393Z,3.50
2019-02-24T04:03:13.785Z,3.80
2019-02-24T04:05:42.204Z,5.70
2019-02-24T04:08:10.550Z,3.70
2019-02-24T04:10:39.019Z,4.13
2019-02-24T04:13:07.393Z,4.60
2019-02-24T04:15:35.777Z,3.40
2019-02-24T04:18:04.063Z,5.30
2019-02-24T04:20:32.385Z,4.30
2019-02-24T04:23:00.666Z,3.43
2019-02-24T04:25:28.989Z,5.50
2019-02-24T04:27:57.280Z,5.40
2019-02-24T04:30:25.723Z,3.10
2019-02-24T04:32:54.361Z,6.00
2019-02-24T04:35:22.699Z,3.13
2019-02-24T04:37:50.979Z,4.40
2019-02-24T04:40:19.331Z,6.20
2019-02-24T04:42:47.630Z,7.93
2019-02-24T04:45:16.004Z,5.13
2019-02-24T04:47:44.372Z,4.93
2019-02-24T04:50:12.848Z,5.53
2019-02-24T04:52:41.350Z,4.37
2019-02-24T04:55:09.690Z,3.98
2019-02-24T04:57:37.974Z,6.07
2019-02-24T05:00:08.826Z,6.20
2019-02-24T05:02:37.144Z,4.93
2019-02-24T05:05:07.132Z,3.93
2019-02-24T05:07:35.441Z,4.97
2019-02-24T05:10:05.971Z,5.90
2019-02-24T05:12:34.298Z,3.90
2019-02-24T05:15:02.768Z,4.80
2019-02-24T05:17:31.240Z,6.47
2019-02-24T05:19:59.688Z,3.45
2019-02-24T05:22:27.995Z,4.97
2019-02-24T05:24:56.291Z,5.50
2019-02-24T05:27:24.590Z,5.97
2019-02-24T05:29:52.950Z,4.70
2019-02-24T05:32:21.447Z,6.10
2019-02-24T05:34:49.753Z,5.60
2019-02-24T05:37:18.065Z,5.00
2019-02-24T05:39:46.505Z,3.40
2019-02-24T05:42:14.847Z,3.87
2019-02-24T05:44:43.148Z,5.40
2019-02-24T05:47:11.483Z,4.55
2019-02-24T05:49:41.103Z,4.30
2019-02-24T05:52:09.413Z,5.30
2019-02-24T05:54:37.789Z,3.63
2019-02-24T05:57:06.084Z,5.20
2019-02-24T05:59:34.399Z,6.10
2019-02-24T06:02:02.690Z,4.22
2019-02-24T06:04:31.925Z,5.03
2019-02-24T06:07:00.223Z,7.20
2019-02-24T06:09:28.658Z,4.47
2019-02-24T06:11:56.957Z,5.72
2019-02-24T06:14:25.487Z,5.35
2019-02-24T06:16:53.774Z,3.90
2019-02-24T06:19:22.192Z,5.87
2019-02-24T06:21:50.592Z,5.10
2019-02-24T06:24:18.948Z,3.87
2019-02-24T06:26:47.264Z,3.70
2019-02-24T06:29:15.727Z,4.12
2019-02-24T06:31:44.098Z,6.90
2019-02-24T06:34:12.679Z,5.55
2019-02-24T06:36:41.012Z,4.70
2019-02-24T06:39:10.728Z,6.15
2019-02-24T06:41:39.046Z,5.53
2019-02-24T06:44:07.366Z,4.53
2019-02-24T06:46:35.709Z,4.62
2019-02-24T06:49:04.058Z,5.30
2019-02-24T06:51:32.527Z,5.37
2019-02-24T06:54:00.808Z,4.83
2019-02-24T06:56:29.122Z,4.60
2019-02-24T06:58:57.500Z,5.63
2019-02-24T07:01:26.017Z,7.10
2019-02-24T07:03:54.669Z,5.60
2019-02-24T07:06:23.279Z,7.75
2019-02-24T07:08:51.688Z,140.70
2019-02-24T07:11:20.203Z,70.57
2019-02-24T07:13:48.530Z,12.10
2019-02-24T07:16:17.601Z,8.63
2019-02-24T07:18:46.002Z,7.43
2019-02-24T07:21:14.412Z,8.80
2019-02-24T07:23:42.970Z,7.57
2019-02-24T07:26:11.402Z,10.27
2019-02-24T07:28:39.812Z,6.60
2019-02-24T07:31:09.113Z,5.37
2019-02-24T07:33:37.577Z,8.33
2019-02-24T07:36:05.946Z,6.80
2019-02-24T07:38:34.424Z,9.90
2019-02-24T07:41:02.718Z,6.37
2019-02-24T07:43:31.112Z,7.50
2019-02-24T07:45:59.437Z,5.80
2019-02-24T07:48:27.823Z,7.63
2019-02-24T07:50:56.128Z,8.63
2019-02-24T07:53:24.772Z,7.10
2019-02-24T07:55:53.086Z,6.00
2019-02-24T07:58:21.463Z,6.83
2019-02-24T08:00:49.841Z,6.70
2019-02-24T08:03:18.335Z,7.00
2019-02-24T08:05:46.701Z,16.33
2019-02-24T08:08:16.685Z,12.70
2019-02-24T08:10:45.230Z,28.63
2019-02-24T08:13:13.619Z,21.13
2019-02-24T08:15:43.288Z,9.90
2019-02-24T08:18:11.895Z,10.80
2019-02-24T08:20:40.248Z,8.70
2019-02-24T08:23:08.591Z,10.57
2019-02-24T08:25:36.950Z,7.70
2019-02-24T08:28:06.329Z,7.30
2019-02-24T08:30:41.336Z,6.20
2019-02-24T08:33:04.853Z,6.50
2019-02-24T08:35:33.000Z,6.87
2019-02-24T08:38:01.433Z,5.63
2019-02-24T08:40:29.761Z,6.00
2019-02-24T08:42:58.114Z,6.27
2019-02-24T08:45:26.527Z,7.77
2019-02-24T08:47:55.440Z,6.30
2019-02-24T08:50:23.849Z,6.47
2019-02-24T08:52:52.289Z,7.27
2019-02-24T08:55:20.646Z,6.40
2019-02-24T08:57:48.942Z,7.87
2019-02-24T09:00:17.507Z,6.53
2019-02-24T09:02:45.884Z,6.57
2019-02-24T09:05:14.303Z,8.67
2019-02-24T09:07:42.964Z,8.40
2019-02-24T09:10:11.286Z,6.60
2019-02-24T09:12:39.664Z,7.40
2019-02-24T09:15:12.556Z,8.47
2019-02-24T09:17:43.230Z,6.10
2019-02-24T09:20:12.968Z,6.53
2019-02-24T09:22:42.187Z,7.83
2019-02-24T09:25:13.068Z,6.80
2019-02-24T09:27:41.524Z,6.63
2019-02-24T09:30:14.082Z,7.10
2019-02-24T09:32:42.482Z,7.93
2019-02-24T09:35:10.867Z,5.00
2019-02-24T09:37:39.377Z,6.13
2019-02-24T09:40:10.088Z,7.23
2019-02-24T09:42:38.557Z,6.90
2019-02-24T09:45:09.294Z,7.87
2019-02-24T09:47:46.280Z,6.60
2019-02-24T09:50:09.446Z,7.13
2019-02-24T09:52:38.014Z,6.00
2019-02-24T09:55:08.277Z,7.17
2019-02-24T09:57:37.182Z,8.07
2019-02-24T10:00:11.568Z,8.97
2019-02-24T10:02:40.011Z,6.10
2019-02-24T10:05:08.509Z,7.17
2019-02-24T10:07:37.003Z,5.80
2019-02-24T10:10:08.583Z,6.10
2019-02-24T10:12:37.090Z,5.00
2019-02-24T10:15:08.262Z,6.20
2019-02-24T10:17:36.625Z,5.10
2019-02-24T10:20:06.624Z,5.77
2019-02-24T10:22:35.027Z,6.53
2019-02-24T10:25:05.877Z,5.27
2019-02-24T10:27:33.948Z,5.60
2019-02-24T10:30:02.328Z,7.23
2019-02-24T10:32:30.709Z,6.60
2019-02-24T10:34:59.116Z,7.10
2019-02-24T10:37:27.570Z,5.40
2019-02-24T10:39:56.664Z,4.93
2019-02-24T10:42:25.111Z,6.30
2019-02-24T10:44:53.637Z,5.53
2019-02-24T10:47:22.114Z,6.57
2019-02-24T10:49:50.445Z,5.33
2019-02-24T10:52:18.926Z,7.87
2019-02-24T10:54:47.234Z,5.43
2019-02-24T10:57:15.597Z,5.60
2019-02-24T10:59:44.063Z,5.80
2019-02-24T11:02:12.505Z,7.13
2019-02-24T11:04:40.974Z,5.07
2019-02-24T11:07:09.417Z,4.77
2019-02-24T11:09:37.759Z,6.17
2019-02-24T11:12:06.130Z,4.57
2019-02-24T11:14:34.577Z,6.13
2019-02-24T11:17:03.099Z,4.87
2019-02-24T11:19:31.451Z,5.80
2019-02-24T11:21:59.751Z,4.13
2019-02-24T11:24:28.054Z,6.03
2019-02-24T11:26:56.577Z,4.57
2019-02-24T11:29:24.930Z,4.43
2019-02-24T11:31:53.311Z,4.73
2019-02-24T11:34:21.694Z,7.57
2019-02-24T11:36:50.055Z,9.20
2019-02-24T11:39:18.447Z,4.50
2019-02-24T11:41:47.060Z,4.53
2019-02-24T11:44:15.482Z,4.50
2019-02-24T11:46:43.910Z,5.30
2019-02-24T11:49:12.256Z,4.60
2019-02-24T11:51:40.826Z,4.87
2019-02-24T11:54:09.121Z,4.70
2019-02-24T11:56:37.773Z,4.47
2019-02-24T11:59:06.099Z,4.53
2019-02-24T12:01:34.954Z,5.30
2019-02-24T12:04:03.286Z,3.73
2019-02-24T12:06:31.667Z,4.37
2019-02-24T12:09:05.178Z,3.97
2019-02-24T12:11:30.861Z,4.30
2019-02-24T12:13:59.273Z,4.20
2019-02-24T12:16:27.880Z,4.43
2019-02-24T12:18:56.302Z,3.83
2019-02-24T12:21:24.683Z,4.03
2019-02-24T12:23:53.101Z,4.17
2019-02-24T12:26:21.424Z,3.90
2019-02-24T12:28:49.769Z,3.87
2019-02-24T12:31:18.236Z,3.67
2019-02-24T12:33:46.710Z,3.93
2019-02-24T12:36:15.094Z,3.40
2019-02-24T12:38:44.837Z,3.50
2019-02-24T12:41:13.135Z,3.60
2019-02-24T12:43:41.831Z,4.80
2019-02-24T12:46:10.143Z,3.07
2019-02-24T12:48:38.486Z,3.17
2019-02-24T12:51:06.837Z,3.13
2019-02-24T12:53:35.339Z,2.80
2019-02-24T12:56:03.777Z,2.93
2019-02-24T12:58:32.403Z,2.70
2019-02-24T13:01:01.613Z,3.23
2019-02-24T13:03:31.161Z,2.80
2019-02-24T13:05:59.500Z,3.53
2019-02-24T13:08:27.815Z,5.77
2019-02-24T13:10:56.255Z,3.80
2019-02-24T13:13:24.657Z,6.03
2019-02-24T13:15:53.235Z,4.23
2019-02-24T13:18:21.624Z,6.33
2019-02-24T13:20:50.084Z,5.40
2019-02-24T13:23:18.387Z,3.10
2019-02-24T13:25:46.891Z,3.57
2019-02-24T13:28:15.468Z,3.67
2019-02-24T13:30:43.968Z,22.10
2019-02-24T13:33:12.335Z,4.07
2019-02-24T13:35:40.822Z,5.60
2019-02-24T13:38:09.108Z,2.13
2019-02-24T13:40:37.459Z,1.40
2019-02-24T13:43:05.852Z,1.30
2019-02-24T13:45:34.348Z,2.60
2019-02-24T13:48:02.875Z,1.60
2019-02-24T13:50:31.349Z,1.43
2019-02-24T13:52:59.708Z,1.90
2019-02-24T13:55:28.199Z,1.50
2019-02-24T13:57:56.687Z,2.20
2019-02-24T14:00:25.482Z,1.50
2019-02-24T14:02:53.979Z,1.80
2019-02-24T14:05:22.835Z,2.00
2019-02-24T14:07:51.286Z,1.80
2019-02-24T14:10:19.656Z,1.80
2019-02-24T14:12:48.262Z,2.00
2019-02-24T14:15:17.047Z,2.30
2019-02-24T14:17:45.949Z,1.93
2019-02-24T14:20:15.761Z,2.37
2019-02-24T14:22:44.146Z,1.70
2019-02-24T14:25:13.509Z,2.30
2019-02-24T14:27:41.961Z,1.60
2019-02-24T14:30:15.112Z,3.00
2019-02-24T14:32:44.383Z,1.77
2019-02-24T14:35:17.795Z,2.83
2019-02-24T14:37:46.214Z,2.23
2019-02-24T14:40:14.651Z,2.57
2019-02-24T14:42:43.324Z,2.03
2019-02-24T14:45:14.311Z,2.00
2019-02-24T14:47:42.978Z,2.07
2019-02-24T14:50:11.872Z,1.83
2019-02-24T14:52:40.295Z,2.00
2019-02-24T14:55:11.033Z,2.53
2019-02-24T14:57:40.878Z,3.00
2019-02-24T15:00:12.870Z,2.37
2019-02-24T15:02:42.782Z,2.60
2019-02-24T15:05:13.227Z,2.90
2019-02-24T15:07:41.634Z,2.00
2019-02-24T15:10:18.181Z,2.20
2019-02-24T15:12:46.693Z,3.47
2019-02-24T15:15:26.394Z,2.20
2019-02-24T15:17:53.321Z,1.90
2019-02-24T15:20:22.312Z,3.10
2019-02-24T15:22:50.843Z,3.83
2019-02-24T15:25:19.371Z,4.40
2019-02-24T15:27:47.834Z,2.83
2019-02-24T15:30:36.686Z,1.80
2019-02-24T15:33:05.253Z,2.70
2019-02-24T15:35:33.998Z,2.07
2019-02-24T15:38:02.480Z,2.60
2019-02-24T15:40:30.947Z,2.33
2019-02-24T15:42:59.257Z,3.80
2019-02-24T15:45:27.609Z,1.90
2019-02-24T15:47:56.113Z,2.37
2019-02-24T15:50:26.187Z,2.93
2019-02-24T15:52:54.606Z,3.83
2019-02-24T15:55:22.947Z,3.50
2019-02-24T15:57:51.251Z,2.90
2019-02-24T16:00:24.474Z,2.20
2019-02-24T16:03:00.914Z,1.80
2019-02-24T16:05:23.484Z,2.17
2019-02-24T16:07:51.912Z,1.80
2019-02-24T16:10:22.860Z,2.10
2019-02-24T16:12:52.165Z,2.30
2019-02-24T16:15:23.249Z,2.00
2019-02-24T16:17:51.726Z,2.60
2019-02-24T16:20:28.741Z,2.70
2019-02-24T16:22:57.104Z,2.17
2019-02-24T16:25:25.707Z,2.47
2019-02-24T16:27:54.522Z,3.00
2019-02-24T16:30:23.015Z,2.87
2019-02-24T16:32:51.447Z,2.27
2019-02-24T16:35:19.833Z,2.43
2019-02-24T16:37:49.145Z,2.83
2019-02-24T16:40:20.755Z,2.50
2019-02-24T16:42:49.395Z,2.20
2019-02-24T16:45:18.023Z,2.23
2019-02-24T16:47:46.761Z,2.70
2019-02-24T16:50:17.167Z,4.27
2019-02-24T16:52:45.699Z,3.30
2019-02-24T16:55:15.796Z,2.47
2019-02-24T16:57:44.190Z,3.50
2019-02-24T17:00:22.709Z,3.40
2019-02-24T17:02:51.104Z,7.40
2019-02-24T17:05:19.576Z,4.93
2019-02-24T17:07:49.720Z,4.83
2019-02-24T17:10:23.480Z,2.50
2019-02-24T17:12:51.877Z,1.80
2019-02-24T17:15:20.580Z,3.20
2019-02-24T17:17:48.888Z,4.53
2019-02-24T17:20:24.490Z,2.70
2019-02-24T17:22:52.993Z,3.90
2019-02-24T17:25:21.506Z,3.80
2019-02-24T17:27:49.875Z,5.70
2019-02-24T17:30:18.301Z,3.67
2019-02-24T17:32:46.680Z,2.57
2019-02-24T17:35:17.775Z,3.10
2019-02-24T17:37:46.337Z,3.70
2019-02-24T17:40:19.321Z,3.10
2019-02-24T17:42:48.828Z,7.90
2019-02-24T17:45:17.519Z,3.60
2019-02-24T17:47:45.905Z,4.80
2019-02-24T17:50:15.982Z,4.90
2019-02-24T17:52:44.452Z,5.93
2019-02-24T17:55:15.051Z,4.63
2019-02-24T17:57:44.048Z,4.27
2019-02-24T18:00:23.034Z,3.97
2019-02-24T18:02:51.572Z,3.90
2019-02-24T18:05:20.222Z,3.70
2019-02-24T18:07:48.524Z,3.47
2019-02-24T18:10:16.936Z,4.47
2019-02-24T18:12:45.406Z,5.40
2019-02-24T18:15:13.781Z,3.60
2019-02-24T18:17:42.243Z,4.13
2019-02-24T18:20:13.222Z,4.80
2019-02-24T18:22:41.640Z,4.70
2019-02-24T18:25:11.617Z,3.80
2019-02-24T18:27:40.152Z,4.23
2019-02-24T18:30:20.797Z,8.13
2019-02-24T18:32:49.982Z,5.03
2019-02-24T18:35:18.529Z,4.03
2019-02-24T18:37:46.957Z,4.27
2019-02-24T18:40:15.991Z,9.77
2019-02-24T18:42:44.389Z,6.03
2019-02-24T18:45:14.056Z,7.10
2019-02-24T18:47:42.934Z,6.33
2019-02-24T18:50:15.782Z,3.80
2019-02-24T18:52:44.332Z,5.73
2019-02-24T18:55:13.172Z,5.83
2019-02-24T18:57:41.651Z,4.13
2019-02-24T19:00:19.174Z,6.93
2019-02-24T19:02:48.250Z,6.30
2019-02-24T19:05:16.682Z,7.20
2019-02-24T19:07:45.091Z,11.90
2019-02-24T19:10:16.004Z,13.27
2019-02-24T19:12:44.543Z,13.43
2019-02-24T19:15:17.758Z,14.83
2019-02-24T19:17:46.199Z,10.47
2019-02-24T19:20:17.165Z,19.83
2019-02-24T19:22:45.564Z,22.83
2019-02-24T19:25:14.104Z,18.37
2019-02-24T19:27:42.522Z,18.07
2019-02-24T19:30:13.460Z,14.73
2019-02-24T19:32:41.944Z,14.23
2019-02-24T19:35:12.031Z,14.63
2019-02-24T19:37:40.423Z,14.17
2019-02-24T19:40:11.633Z,11.40
2019-02-24T19:42:40.788Z,13.90
2019-02-24T19:45:12.524Z,10.43
2019-02-24T19:47:40.843Z,14.87
2019-02-24T19:50:19.204Z,14.80
2019-02-24T19:52:47.534Z,16.80
2019-02-24T19:55:17.067Z,13.37
2019-02-24T19:57:45.496Z,12.33
2019-02-24T20:00:20.189Z,11.27
2019-02-24T20:02:48.828Z,20.13
2019-02-24T20:05:17.332Z,10.60
2019-02-24T20:07:45.693Z,13.00
2019-02-24T20:10:17.004Z,14.63
2019-02-24T20:12:45.522Z,13.30
2019-02-24T20:15:17.227Z,17.87
2019-02-24T20:17:45.733Z,11.97
2019-02-24T20:20:17.685Z,10.43
2019-02-24T20:22:46.562Z,11.97
2019-02-24T20:25:23.042Z,12.53
2019-02-24T20:27:51.605Z,12.80
2019-02-24T20:30:31.371Z,17.40
2019-02-24T20:32:59.772Z,11.93
2019-02-24T20:35:28.278Z,10.83
2019-02-24T20:37:56.576Z,14.70
2019-02-24T20:40:24.961Z,14.13
2019-02-24T20:42:53.339Z,12.37
2019-02-24T20:45:23.764Z,13.60
2019-02-24T20:47:52.170Z,15.93
2019-02-24T20:50:23.060Z,11.80
2019-02-24T20:52:51.529Z,12.50
2019-02-24T20:55:19.970Z,18.80
2019-02-24T20:57:48.447Z,13.00
2019-02-24T21:00:32.019Z,12.87
2019-02-24T21:03:01.404Z,12.00
2019-02-24T21:05:30.587Z,13.20
2019-02-24T21:07:59.076Z,18.40
2019-02-24T21:10:27.470Z,24.40
2019-02-24T21:12:55.892Z,20.87
2019-02-24T21:15:24.290Z,20.03
2019-02-24T21:17:52.767Z,26.50
2019-02-24T21:20:31.426Z,32.20
2019-02-24T21:22:59.845Z,29.43
2019-02-24T21:25:28.269Z,31.60
2019-02-24T21:27:56.656Z,28.17
2019-02-24T21:30:25.143Z,29.20
2019-02-24T21:32:53.571Z,20.00
2019-02-24T21:35:21.997Z,13.33
2019-02-24T21:37:50.325Z,14.20
2019-02-24T21:40:23.586Z,14.93
2019-02-24T21:42:52.208Z,13.17
2019-02-24T21:45:26.136Z,16.63
2019-02-24T21:47:54.977Z,10.90
2019-02-24T21:50:23.805Z,10.77
2019-02-24T21:52:52.196Z,12.83
2019-02-24T21:55:20.709Z,26.57
2019-02-24T21:57:49.025Z,10.73
2019-02-24T22:00:21.971Z,10.80
2019-02-24T22:02:50.263Z,12.73
2019-02-24T22:05:18.718Z,11.30
2019-02-24T22:07:47.034Z,14.63
2019-02-24T22:10:16.401Z,13.13
2019-02-24T22:12:44.863Z,16.83
2019-02-24T22:15:16.031Z,15.33
2019-02-24T22:17:46.773Z,18.70
2019-02-24T22:20:15.766Z,15.10
2019-02-24T22:22:44.603Z,15.67
2019-02-24T22:25:14.276Z,15.30
2019-02-24T22:27:42.792Z,31.17
2019-02-24T22:30:16.332Z,17.60
2019-02-24T22:32:44.838Z,36.43
2019-02-24T22:35:13.284Z,27.60
2019-02-24T22:37:41.853Z,21.13
2019-02-24T22:40:12.371Z,18.00
2019-02-24T22:42:40.823Z,14.43
2019-02-24T22:45:12.147Z,12.37
2019-02-24T22:47:40.791Z,11.60
2019-02-24T22:50:10.126Z,13.87
2019-02-24T22:52:38.719Z,14.60
2019-02-24T22:55:17.224Z,11.90
2019-02-24T22:57:45.555Z,13.37
2019-02-24T23:00:33.924Z,12.43
2019-02-24T23:03:02.336Z,15.87
2019-02-24T23:05:30.823Z,12.50
2019-02-24T23:07:59.221Z,12.67
2019-02-24T23:10:27.606Z,12.17
2019-02-24T23:12:56.003Z,11.93
2019-02-24T23:15:24.403Z,8.80
2019-02-24T23:17:53.062Z,10.57
2019-02-24T23:20:21.414Z,11.20
2019-02-24T23:22:49.808Z,14.13
2019-02-24T23:25:18.125Z,9.67
2019-02-24T23:27:46.523Z,10.60
2019-02-24T23:30:14.961Z,16.90
2019-02-24T23:32:43.367Z,11.87
2019-02-24T23:35:11.721Z,15.03
2019-02-24T23:37:40.063Z,12.73
2019-02-24T23:40:09.324Z,13.87
2019-02-24T23:42:37.713Z,11.53
2019-02-24T23:45:10.448Z,13.17
2019-02-24T23:47:38.473Z,14.80
2019-02-24T23:50:08.994Z,12.10
2019-02-24T23:52:37.369Z,11.90
2019-02-24T23:55:07.647Z,10.80
2019-02-24T23:57:36.040Z,10.33
